Time;durP1;ratioP1;P1;durP2;ratioP2;P2;SDS_P1;SDS_P2;PMS_P1;PMS_P2;Temp;Humidity;BMP_temperature;BMP_pressure;BME280_temperature;BME280_humidity;BME280_pressure;Samples;Min_cycle;Max_cycle;Signal;HPM_P1;HPM_P2
2022/01/04 00:01:44;;;;;;;8.32;3.20;;;;;;;8.62;86.97;100190.47;5034438;28;20021;-66
2022/01/04 00:04:10;;;;;;;7.30;3.53;;;;;;;8.60;86.81;100173.75;5034062;28;20025;-67
2022/01/04 00:06:40;;;;;;;6.00;3.10;;;;;;;8.62;87.15;100182.56;5033324;28;20120;-66
2022/01/04 00:09:07;;;;;;;5.47;3.10;;;;;;;8.60;87.55;100165.84;5034469;28;20030;-66
2022/01/04 00:11:57;;;;;;;6.07;3.08;;;;;;;8.56;86.62;100171.97;5016409;28;20026;-66
2022/01/04 00:14:22;;;;;;;8.02;3.10;;;;;;;8.59;86.77;100178.13;5033974;28;20026;-66
2022/01/04 00:16:50;;;;;;;6.05;3.10;;;;;;;8.61;87.07;100160.63;5016074;28;20036;-66
2022/01/04 00:19:17;;;;;;;5.03;3.10;;;;;;;8.57;86.52;100153.56;5034086;28;20493;-66
2022/01/04 00:21:44;;;;;;;5.40;3.00;;;;;;;8.59;87.06;100156.19;5034148;28;20072;-66
2022/01/04 00:24:09;;;;;;;5.05;3.00;;;;;;;8.58;86.79;100150.06;5034149;28;20041;-66
2022/01/04 00:26:35;;;;;;;8.75;3.58;;;;;;;8.53;86.99;100139.50;5033821;28;20475;-66
2022/01/04 00:29:01;;;;;;;8.02;3.10;;;;;;;8.55;86.99;100143.88;5033661;28;20032;-66
2022/01/04 00:31:26;;;;;;;7.15;3.00;;;;;;;8.52;87.29;100135.09;5033569;28;20021;-67
2022/01/04 00:33:52;;;;;;;6.68;3.17;;;;;;;8.53;87.58;100120.19;5033780;28;20552;-66
2022/01/04 00:36:18;;;;;;;7.45;3.17;;;;;;;8.53;87.07;100118.41;5033950;28;20029;-66
2022/01/04 00:38:44;;;;;;;7.10;3.08;;;;;;;8.49;87.04;100111.38;5033731;28;20513;-66
2022/01/04 00:41:09;;;;;;;7.88;3.10;;;;;;;8.47;86.91;100105.19;5033645;28;20021;-66
2022/01/04 00:43:36;;;;;;;5.95;3.45;;;;;;;8.49;87.67;100102.59;5015792;28;20022;-66
2022/01/04 00:46:02;;;;;;;6.72;3.38;;;;;;;8.46;87.72;100098.16;5033289;28;20505;-66
2022/01/04 00:50:54;;;;;;;4.82;2.80;;;;;;;8.40;87.96;100086.72;5033424;28;20068;-66
2022/01/04 00:53:20;;;;;;;6.47;3.00;;;;;;;8.40;87.56;100084.09;5033293;28;20045;-66
2022/01/04 00:55:45;;;;;;;6.65;3.38;;;;;;;8.39;88.14;100084.94;5033430;28;20522;-67
2022/01/04 00:58:11;;;;;;;6.22;3.30;;;;;;;8.39;88.02;100084.94;5033389;28;20021;-66
2022/01/04 01:00:37;;;;;;;8.27;3.20;;;;;;;8.37;88.36;100081.44;5033323;28;20021;-66
2022/01/04 01:03:03;;;;;;;9.75;3.75;;;;;;;8.36;88.22;100080.53;5033150;28;20033;-66
2022/01/04 01:05:30;;;;;;;8.95;3.55;;;;;;;8.35;88.12;100073.50;5033400;28;20032;-67
2022/01/04 01:07:56;;;;;;;8.98;3.40;;;;;;;8.32;88.30;100067.34;5033219;28;20060;-66
2022/01/04 01:12:54;;;;;;;6.68;3.17;;;;;;;8.29;88.72;100062.91;5033101;28;20038;-66
2022/01/04 01:15:20;;;;;;;9.02;3.38;;;;;;;8.25;88.91;100064.63;5033093;28;20053;-66
2022/01/04 01:17:46;;;;;;;8.93;3.75;;;;;;;8.25;89.04;100067.28;5032691;28;20045;-66
2022/01/04 01:20:13;;;;;;;9.77;3.70;;;;;;;8.24;89.00;100065.50;5033011;28;20037;-66
2022/01/04 01:22:39;;;;;;;7.82;3.25;;;;;;;8.27;88.92;100059.41;5033074;28;20037;-66
2022/01/04 01:25:06;;;;;;;8.70;3.50;;;;;;;8.31;88.32;100055.03;5033059;28;20029;-66
2022/01/04 01:27:31;;;;;;;7.57;3.70;;;;;;;8.26;88.29;100048.00;5032982;28;20548;-66
2022/01/04 01:29:57;;;;;;;7.05;3.70;;;;;;;8.28;88.52;100050.63;5032925;28;20111;-67
2022/01/04 01:32:22;;;;;;;7.63;3.95;;;;;;;8.25;88.17;100050.59;5032855;28;20018;-66
2022/01/04 01:34:48;;;;;;;8.65;3.58;;;;;;;8.20;88.41;100045.31;5032916;28;20048;-66
2022/01/04 01:37:13;;;;;;;9.13;3.70;;;;;;;8.20;88.30;100040.03;5032872;28;20038;-66
2022/01/04 01:39:39;;;;;;;11.00;4.10;;;;;;;8.24;88.67;100040.94;5032896;28;20122;-66
2022/01/04 01:42:05;;;;;;;10.25;3.95;;;;;;;8.22;88.17;100037.41;5015025;28;20025;-66
2022/01/04 01:44:32;;;;;;;9.85;4.05;;;;;;;8.21;88.35;100028.63;5032972;28;20028;-66
2022/01/04 01:46:58;;;;;;;12.75;4.28;;;;;;;8.22;88.24;100019.00;5032688;28;20041;-67
2022/01/04 01:49:24;;;;;;;7.13;3.90;;;;;;;8.20;88.23;100026.00;5032666;28;20092;-66
2022/01/04 01:51:49;;;;;;;9.18;3.83;;;;;;;8.20;88.91;100023.38;5032476;28;20029;-66
2022/01/04 01:54:15;;;;;;;7.72;4.13;;;;;;;8.18;88.42;100010.22;5032737;28;20044;-66
2022/01/04 01:56:41;;;;;;;8.90;4.03;;;;;;;8.19;88.80;100016.34;5014976;28;20441;-67
2022/01/04 01:59:07;;;;;;;9.90;3.90;;;;;;;8.19;88.52;100022.50;5032581;28;20104;-66
2022/01/04 02:01:33;;;;;;;9.55;4.15;;;;;;;8.16;88.15;100011.94;5032646;28;20029;-67
2022/01/04 02:03:58;;;;;;;8.35;3.63;;;;;;;8.18;88.51;100019.84;5032608;28;20033;-67
2022/01/04 02:06:29;;;;;;;9.68;4.10;;;;;;;8.21;88.24;100014.59;5032679;28;20518;-66
2022/01/04 02:08:56;;;;;;;13.32;4.68;;;;;;;8.19;88.57;100009.34;5032650;28;20033;-66
2022/01/04 02:11:22;;;;;;;9.20;4.30;;;;;;;8.16;88.48;100006.69;5032583;28;20105;-67
2022/01/04 02:13:47;;;;;;;11.45;5.22;;;;;;;8.15;88.76;99999.66;5032435;28;20053;-67
2022/01/04 02:16:13;;;;;;;9.75;5.00;;;;;;;8.16;88.38;99997.91;5032512;28;20100;-66
2022/01/04 02:18:39;;;;;;;8.35;4.20;;;;;;;8.16;88.69;99990.88;5032409;28;20040;-67
2022/01/04 02:21:04;;;;;;;8.48;4.57;;;;;;;8.10;88.16;99980.34;5032436;28;20036;-67
2022/01/04 02:23:29;;;;;;;11.45;4.57;;;;;;;8.10;88.51;99967.19;5032532;28;20018;-69
2022/01/04 02:25:56;;;;;;;9.90;4.28;;;;;;;8.11;87.87;99973.31;5032476;28;20061;-67
2022/01/04 02:28:22;;;;;;;8.82;4.22;;;;;;;8.06;88.51;99962.78;5032472;28;20060;-66
2022/01/04 02:30:48;;;;;;;9.82;4.32;;;;;;;8.11;88.51;99968.94;5035999;28;20447;-66
2022/01/04 02:33:14;;;;;;;8.85;4.80;;;;;;;8.12;88.37;99967.19;5035739;28;20025;-66
2022/01/04 02:35:40;;;;;;;9.10;4.75;;;;;;;8.11;88.42;99968.94;5035828;28;20029;-66
2022/01/04 02:38:05;;;;;;;10.30;4.97;;;;;;;8.11;88.27;99962.78;5036061;28;20029;-66
2022/01/04 02:40:31;;;;;;;9.73;4.35;;;;;;;8.12;87.92;99970.69;5035810;28;20109;-66
2022/01/04 02:42:57;;;;;;;11.35;4.95;;;;;;;8.12;88.06;99972.44;5035833;28;20026;-66
2022/01/04 02:45:23;;;;;;;8.15;4.30;;;;;;;8.11;88.64;99965.44;5035700;28;20036;-67
2022/01/04 02:47:48;;;;;;;9.30;5.03;;;;;;;8.08;88.45;99963.66;5035656;28;20025;-66
2022/01/04 02:50:14;;;;;;;9.65;4.90;;;;;;;8.04;88.42;99949.59;5035801;28;20116;-66
2022/01/04 02:52:39;;;;;;;10.90;4.97;;;;;;;8.06;87.86;99943.47;5035420;28;20099;-66
2022/01/04 02:55:07;;;;;;;11.80;4.90;;;;;;;8.03;88.44;99934.69;5035666;28;20108;-67
2022/01/04 02:57:33;;;;;;;8.27;4.93;;;;;;;8.00;88.14;99937.28;5035632;28;20036;-67
2022/01/04 02:59:59;;;;;;;10.90;4.88;;;;;;;8.00;88.33;99934.66;5035809;28;20053;-66
2022/01/04 03:02:25;;;;;;;9.80;4.57;;;;;;;8.00;88.10;99945.16;5017701;28;20021;-66
2022/01/04 03:04:50;;;;;;;12.02;5.13;;;;;;;8.00;88.31;99928.50;5035288;28;20025;-67
2022/01/04 03:07:15;;;;;;;8.93;4.70;;;;;;;7.99;88.20;99921.50;5035588;28;20021;-66
2022/01/04 03:09:41;;;;;;;9.93;4.68;;;;;;;7.99;87.95;99925.00;5035217;28;20525;-66
2022/01/04 03:12:07;;;;;;;11.07;5.10;;;;;;;7.98;87.68;99922.38;5035297;28;20048;-66
2022/01/04 03:14:34;;;;;;;8.30;4.47;;;;;;;7.98;87.76;99912.72;5035161;28;20459;-66
2022/01/04 03:17:00;;;;;;;9.52;4.55;;;;;;;7.96;87.90;99913.56;5035208;28;20037;-66
2022/01/04 03:19:26;;;;;;;9.15;4.25;;;;;;;7.95;88.10;99894.28;5035061;28;20029;-66
2022/01/04 03:21:51;;;;;;;10.73;4.90;;;;;;;7.97;88.45;99894.31;5034978;28;20486;-66
2022/01/04 03:24:17;;;;;;;9.25;4.57;;;;;;;7.97;87.71;99889.06;5035033;28;20033;-66
2022/01/04 03:26:43;;;;;;;13.93;4.90;;;;;;;7.98;87.62;99880.28;5035086;28;20022;-66
2022/01/04 03:29:12;;;;;;;8.35;4.20;;;;;;;7.97;88.16;99882.03;5034851;28;20021;-66
2022/01/04 03:31:38;;;;;;;9.65;4.55;;;;;;;7.95;87.46;99867.97;5034999;28;20036;-67
2022/01/04 03:34:03;;;;;;;8.25;3.90;;;;;;;7.96;87.71;99875.00;5034820;28;20025;-67
2022/01/04 03:36:29;;;;;;;7.80;4.43;;;;;;;7.93;88.20;99860.97;5034772;28;20108;-67
2022/01/04 03:38:56;;;;;;;8.00;4.10;;;;;;;7.94;88.42;99853.06;5035050;28;20429;-66
2022/01/04 03:41:23;;;;;;;8.30;4.10;;;;;;;7.92;88.00;99851.28;5034816;28;20021;-66
2022/01/04 03:43:50;;;;;;;8.38;4.40;;;;;;;7.90;88.01;99839.91;5034641;28;20041;-67
2022/01/04 03:46:16;;;;;;;8.90;4.53;;;;;;;7.89;88.66;99832.88;5034700;28;20156;-66
2022/01/04 03:48:41;;;;;;;9.48;4.30;;;;;;;7.89;87.92;99822.38;5034351;28;20079;-67
2022/01/04 03:51:08;;;;;;;12.63;4.55;;;;;;;7.88;88.47;99821.50;5034786;28;20033;-66
2022/01/04 03:53:34;;;;;;;8.35;4.38;;;;;;;7.85;88.50;99821.47;5034305;28;20069;-66
2022/01/04 03:56:00;;;;;;;12.15;5.20;;;;;;;7.84;88.70;99817.09;5034425;28;20044;-66
2022/01/04 03:58:26;;;;;;;9.60;4.03;;;;;;;7.85;88.53;99807.44;5034219;28;20026;-67
2022/01/04 04:00:52;;;;;;;11.20;4.43;;;;;;;7.84;88.85;99805.69;5034405;28;20494;-66
2022/01/04 04:03:18;;;;;;;9.23;4.10;;;;;;;7.84;88.99;99803.94;5034292;28;20053;-66
2022/01/04 04:05:43;;;;;;;8.18;4.28;;;;;;;7.84;88.34;99801.31;5034122;28;20048;-67
2022/01/04 04:08:08;;;;;;;10.18;4.30;;;;;;;7.80;87.96;99786.38;5034221;28;20054;-66
2022/01/04 04:10:34;;;;;;;8.95;4.68;;;;;;;7.85;88.04;99794.28;5034184;28;20025;-66
2022/01/04 04:13:00;;;;;;;8.55;4.50;;;;;;;7.81;88.35;99784.63;5034060;28;20411;-66
2022/01/04 04:15:25;;;;;;;7.93;4.70;;;;;;;7.84;89.25;99788.16;5033979;28;20107;-67
2022/01/04 04:17:51;;;;;;;10.63;4.68;;;;;;;7.80;89.03;99775.00;5034020;28;20029;-66
2022/01/04 04:20:16;;;;;;;8.20;4.53;;;;;;;7.82;88.74;99771.47;5033877;28;20038;-67
2022/01/04 04:22:41;;;;;;;10.50;5.32;;;;;;;7.82;89.08;99765.34;5033716;28;20034;-67
2022/01/04 04:25:07;;;;;;;11.45;5.38;;;;;;;7.80;88.75;99760.09;5033861;28;20521;-66
2022/01/04 04:27:33;;;;;;;9.20;4.90;;;;;;;7.80;88.27;99757.47;5033818;28;20026;-67
2022/01/04 04:29:59;;;;;;;13.07;5.22;;;;;;;7.77;88.63;99752.19;5033646;28;20446;-66
2022/01/04 04:32:24;;;;;;;9.68;5.00;;;;;;;7.76;89.05;99751.31;5033811;28;20372;-66
2022/01/04 04:34:50;;;;;;;11.35;5.63;;;;;;;7.78;89.08;99757.44;5033757;28;20368;-66
2022/01/04 04:37:16;;;;;;;11.60;5.45;;;;;;;7.78;89.29;99754.81;5015855;28;20471;-66
2022/01/04 04:39:41;;;;;;;12.35;5.70;;;;;;;7.80;88.82;99757.47;5033770;28;20505;-66
2022/01/04 04:42:07;;;;;;;13.13;5.15;;;;;;;7.81;88.48;99753.94;5033579;28;20510;-66
2022/01/04 04:44:32;;;;;;;7.60;4.65;;;;;;;7.82;88.54;99753.06;5015757;28;20045;-66
2022/01/04 04:46:58;;;;;;;10.60;5.38;;;;;;;7.80;88.62;99744.31;5033526;28;20021;-67
2022/01/04 04:49:23;;;;;;;11.75;4.90;;;;;;;7.81;88.76;99751.31;5033381;28;20390;-67
2022/01/04 04:51:49;;;;;;;8.63;4.78;;;;;;;7.84;88.95;99750.47;5032786;28;20037;-67
2022/01/04 04:54:14;;;;;;;8.75;4.68;;;;;;;7.85;88.56;99757.47;5033180;28;20041;-66
2022/01/04 04:56:40;;;;;;;8.93;4.50;;;;;;;7.85;88.51;99760.09;5033364;28;20073;-66
2022/01/04 04:59:06;;;;;;;10.80;5.20;;;;;;;7.82;88.51;99760.09;5033213;28;20037;-66
2022/01/04 05:01:32;;;;;;;8.40;4.78;;;;;;;7.82;89.54;99760.97;5033500;28;20021;-66
2022/01/04 05:03:58;;;;;;;10.18;5.13;;;;;;;7.82;89.23;99753.06;5033270;28;20372;-66
2022/01/04 05:06:23;;;;;;;7.50;4.45;;;;;;;7.82;88.95;99750.44;5033241;28;20032;-67
2022/01/04 05:08:48;;;;;;;10.52;5.63;;;;;;;7.81;88.96;99737.28;5033092;28;20108;-66
2022/01/04 05:11:14;;;;;;;11.15;5.47;;;;;;;7.79;88.65;99747.78;5033249;28;20032;-66
2022/01/04 05:13:39;;;;;;;13.55;5.50;;;;;;;7.79;88.58;99742.53;5033067;28;20025;-67
2022/01/04 05:16:08;;;;;;;10.52;4.90;;;;;;;7.81;89.39;99748.69;5033125;28;20025;-66
2022/01/04 05:18:33;;;;;;;11.27;5.43;;;;;;;7.80;89.22;99741.69;5033491;28;20033;-67
2022/01/04 05:20:59;;;;;;;10.55;6.10;;;;;;;7.80;89.35;99736.41;5033097;28;20036;-67
2022/01/04 05:23:24;;;;;;;11.50;5.75;;;;;;;7.80;89.25;99740.81;5032887;28;20022;-67
2022/01/04 05:25:49;;;;;;;11.25;5.78;;;;;;;7.83;89.03;99732.91;5033084;28;20115;-67
2022/01/04 05:28:15;;;;;;;10.98;6.00;;;;;;;7.82;89.16;99736.41;5032960;28;20387;-66
2022/01/04 05:30:40;;;;;;;12.38;6.40;;;;;;;7.80;88.94;99725.91;5032786;28;20080;-66
2022/01/04 05:33:06;;;;;;;12.80;6.38;;;;;;;7.76;89.92;99721.50;5015161;28;20049;-66
2022/01/04 05:35:31;;;;;;;13.50;6.53;;;;;;;7.78;88.75;99717.09;5032890;28;20052;-66
2022/01/04 05:37:56;;;;;;;10.48;6.38;;;;;;;7.76;89.16;99710.97;5032782;28;20108;-66
2022/01/04 05:40:22;;;;;;;11.80;6.40;;;;;;;7.80;89.19;99701.34;5032850;28;20421;-66
2022/01/04 05:42:47;;;;;;;11.13;6.50;;;;;;;7.78;89.56;99696.94;5032953;28;20025;-66
2022/01/04 05:45:13;;;;;;;10.82;6.15;;;;;;;7.75;89.26;99691.69;5032747;28;20029;-66
2022/01/04 05:47:38;;;;;;;10.98;6.10;;;;;;;7.74;90.23;99699.56;5032840;28;20094;-66
2022/01/04 05:50:05;;;;;;;9.73;6.45;;;;;;;7.70;90.55;99685.53;5032910;28;20053;-67
2022/01/04 05:52:32;;;;;;;9.32;6.00;;;;;;;7.71;90.79;99686.44;5032462;28;20132;-66
2022/01/04 05:54:57;;;;;;;8.32;5.65;;;;;;;7.68;91.10;99689.91;5032556;28;20037;-66
2022/01/04 05:57:23;;;;;;;8.98;6.00;;;;;;;7.69;90.85;99686.41;5032709;28;20048;-66
2022/01/04 05:59:48;;;;;;;10.60;6.35;;;;;;;7.68;90.86;99686.41;5032679;28;20084;-66
2022/01/04 06:02:13;;;;;;;8.07;6.03;;;;;;;7.62;91.10;99687.25;5032813;28;20022;-66
2022/01/04 06:04:39;;;;;;;10.85;6.80;;;;;;;7.65;90.35;99692.50;5034822;28;20029;-66
2022/01/04 06:07:04;;;;;;;10.80;6.53;;;;;;;7.66;90.42;99683.75;5036310;28;20017;-65
2022/01/04 06:09:40;;;;;;;8.93;5.88;;;;;;;7.65;91.22;99681.13;5035967;28;20032;-66
2022/01/04 06:14:50;;;;;;;12.50;6.90;;;;;;;7.63;91.10;99675.88;5036421;28;20056;-66
2022/01/04 06:14:52;;;;;;;9.68;6.55;;;;;;;7.64;90.94;99679.38;5036212;28;20030;-66
2022/01/04 06:17:18;;;;;;;11.75;6.25;;;;;;;7.60;90.68;99667.97;5036310;28;20030;-66
2022/01/04 06:19:44;;;;;;;10.52;6.88;;;;;;;7.56;91.10;99671.47;5036232;28;20026;-67
2022/01/04 06:22:09;;;;;;;14.27;7.85;;;;;;;7.61;91.12;99679.34;5035990;28;20459;-66
2022/01/04 06:24:36;;;;;;;12.60;7.35;;;;;;;7.59;91.65;99676.72;5036403;28;20021;-66
2022/01/04 06:27:05;;;;;;;12.15;7.30;;;;;;;7.56;92.01;99660.94;5036365;28;20033;-66
2022/01/04 06:29:31;;;;;;;11.52;7.15;;;;;;;7.56;91.63;99654.81;5035901;28;20471;-67
2022/01/04 06:31:56;;;;;;;15.13;7.88;;;;;;;7.55;91.99;99661.81;5035937;28;20033;-66
2022/01/04 06:34:22;;;;;;;9.10;7.03;;;;;;;7.57;92.19;99672.34;5036083;28;20033;-66
2022/01/04 06:36:57;;;;;;;10.68;7.25;;;;;;;7.59;91.35;99674.09;5035786;28;20021;-66
2022/01/04 06:39:22;;;;;;;10.75;7.35;;;;;;;7.63;91.82;99677.63;5036075;28;20032;-67
2022/01/04 06:41:49;;;;;;;10.20;7.47;;;;;;;7.64;91.80;99668.88;5035847;28;20021;-66
2022/01/04 06:44:14;;;;;;;10.80;7.60;;;;;;;7.66;91.79;99660.09;5035610;28;20037;-67
2022/01/04 06:46:45;;;;;;;11.20;7.80;;;;;;;7.67;91.62;99667.13;5035731;28;20493;-66
2022/01/04 06:49:12;;;;;;;13.35;7.13;;;;;;;7.72;91.08;99675.91;5035695;28;20079;-66
2022/01/04 06:51:41;;;;;;;11.18;7.75;;;;;;;7.71;91.41;99666.25;5035756;28;20112;-66
2022/01/04 06:54:08;;;;;;;12.25;7.63;;;;;;;7.75;91.20;99652.25;5035352;28;20077;-66
2022/01/04 06:56:35;;;;;;;9.43;7.30;;;;;;;7.77;90.92;99647.00;5035461;28;20029;-66
2022/01/04 06:59:01;;;;;;;12.50;7.80;;;;;;;7.75;91.55;99639.09;5035390;28;20104;-67
2022/01/04 07:01:27;;;;;;;10.23;7.07;;;;;;;7.77;91.71;99639.97;5017716;28;20068;-67
2022/01/04 07:03:53;;;;;;;10.95;7.90;;;;;;;7.74;91.04;99634.69;5035597;28;20360;-66
2022/01/04 07:06:18;;;;;;;11.13;6.90;;;;;;;7.76;91.13;99638.22;5035276;28;20032;-66
2022/01/04 07:08:43;;;;;;;12.30;7.90;;;;;;;7.74;90.84;99644.34;5035283;28;20032;-66
2022/01/04 07:11:09;;;;;;;10.27;7.57;;;;;;;7.74;91.18;99641.72;5035319;28;20163;-67
2022/01/04 07:13:34;;;;;;;10.18;7.20;;;;;;;7.74;91.02;99625.94;5035321;28;20025;-66
2022/01/04 07:16:00;;;;;;;13.60;8.70;;;;;;;7.73;91.58;99617.19;5034963;28;20581;-66
2022/01/04 07:18:25;;;;;;;14.07;8.13;;;;;;;7.71;91.20;99615.44;5035212;28;20026;-66
2022/01/04 07:20:51;;;;;;;14.95;7.70;;;;;;;7.76;91.61;99621.56;5034965;28;20025;-66
2022/01/04 07:23:16;;;;;;;13.18;8.13;;;;;;;7.75;91.11;99615.44;5035119;28;20017;-66
2022/01/04 07:25:42;;;;;;;8.45;6.78;;;;;;;7.71;91.58;99615.44;5035005;28;20032;-67
2022/01/04 07:28:07;;;;;;;12.85;8.48;;;;;;;7.70;91.69;99616.28;5034957;28;20114;-66
2022/01/04 07:30:33;;;;;;;11.80;8.27;;;;;;;7.66;91.30;99609.25;5034879;28;20025;-66
2022/01/04 07:32:58;;;;;;;13.00;8.88;;;;;;;7.69;91.39;99611.91;5035036;28;20457;-67
2022/01/04 07:35:23;;;;;;;15.05;9.00;;;;;;;7.65;91.22;99587.34;5034742;28;20037;-69
2022/01/04 07:37:49;;;;;;;14.55;9.43;;;;;;;7.65;91.04;99584.72;5034706;28;20035;-67
2022/01/04 07:40:14;;;;;;;14.10;10.23;;;;;;;7.62;91.57;99591.72;5034770;28;20487;-67
2022/01/04 07:42:40;;;;;;;15.02;10.18;;;;;;;7.57;91.41;99582.94;5034657;28;20060;-66
2022/01/04 07:45:06;;;;;;;14.27;9.80;;;;;;;7.53;91.72;99580.31;5034463;28;20060;-66
2022/01/04 07:47:32;;;;;;;15.15;9.30;;;;;;;7.52;92.41;99581.19;5034623;28;20029;-68
2022/01/04 07:49:57;;;;;;;17.05;9.73;;;;;;;7.51;92.24;99579.44;5034663;28;20026;-67
2022/01/04 07:52:23;;;;;;;16.67;10.13;;;;;;;7.49;92.58;99588.19;5034276;28;20494;-68
2022/01/04 07:54:48;;;;;;;17.13;10.55;;;;;;;7.51;92.50;99589.97;5034484;28;20022;-67
2022/01/04 07:57:14;;;;;;;16.40;9.90;;;;;;;7.53;92.08;99605.72;5034315;28;20422;-65
2022/01/04 07:59:39;;;;;;;18.92;11.23;;;;;;;7.52;91.50;99596.97;5034188;28;20123;-65
2022/01/04 08:02:05;;;;;;;16.58;9.98;;;;;;;7.56;92.23;99608.38;5034100;28;20378;-66
2022/01/04 08:04:30;;;;;;;14.63;9.25;;;;;;;7.60;91.68;99620.66;5034424;28;20466;-67
2022/01/04 08:06:56;;;;;;;14.00;9.43;;;;;;;7.60;92.31;99599.63;5034077;28;20099;-66
2022/01/04 08:09:21;;;;;;;18.20;10.15;;;;;;;7.63;91.98;99604.03;5033798;28;20021;-65
2022/01/04 08:11:47;;;;;;;15.80;9.45;;;;;;;7.63;91.55;99599.63;5033934;28;20496;-66
2022/01/04 08:14:13;;;;;;;19.00;9.95;;;;;;;7.67;90.99;99595.25;5033941;28;20018;-66
2022/01/04 08:16:39;;;;;;;16.88;9.93;;;;;;;7.70;91.59;99597.88;5033625;28;20025;-65
2022/01/04 08:19:05;;;;;;;22.83;10.38;;;;;;;7.70;91.91;99598.75;5033357;28;20064;-67
2022/01/04 08:21:31;;;;;;;19.00;11.38;;;;;;;7.74;91.80;99597.00;5033429;28;20025;-67
2022/01/04 08:23:56;;;;;;;18.67;10.93;;;;;;;7.73;90.64;99601.41;5033209;28;20021;-66
2022/01/04 08:26:22;;;;;;;17.02;10.88;;;;;;;7.69;91.45;99604.03;5032675;28;20029;-67
2022/01/04 08:28:47;;;;;;;19.27;10.57;;;;;;;7.69;91.27;99604.03;5015206;28;20028;-66
2022/01/04 08:31:13;;;;;;;18.35;10.23;;;;;;;7.70;91.32;99600.50;5033264;28;20029;-63
2022/01/04 08:33:38;;;;;;;21.20;10.63;;;;;;;7.70;91.42;99584.72;5033213;28;20056;-63
2022/01/04 08:36:04;;;;;;;15.45;10.48;;;;;;;7.74;91.80;99602.28;5033292;28;20025;-65
2022/01/04 08:38:30;;;;;;;16.95;10.45;;;;;;;7.76;91.44;99606.66;5033015;28;20490;-64
2022/01/04 08:40:56;;;;;;;19.23;11.80;;;;;;;7.77;91.21;99610.19;5033025;28;20029;-68
2022/01/04 08:43:31;;;;;;;17.90;11.70;;;;;;;7.80;91.68;99611.94;5032891;28;20489;-66
2022/01/04 08:45:56;;;;;;;19.00;10.95;;;;;;;7.78;91.27;99617.19;5015393;28;20033;-65
2022/01/04 08:48:22;;;;;;;18.83;11.80;;;;;;;7.81;91.11;99634.72;5032748;28;20025;-67
2022/01/04 08:50:49;;;;;;;23.52;12.18;;;;;;;7.81;90.85;99634.72;5032845;28;20021;-66
2022/01/04 08:53:14;;;;;;;21.65;12.27;;;;;;;7.80;90.74;99633.00;5032479;28;20053;-67
2022/01/04 08:55:40;;;;;;;19.08;11.80;;;;;;;7.79;91.17;99642.59;5032761;28;20040;-67
2022/01/04 08:58:07;;;;;;;22.90;11.95;;;;;;;7.82;90.19;99647.88;5033043;28;20026;-67
2022/01/04 09:00:32;;;;;;;19.90;12.52;;;;;;;7.80;91.06;99641.75;5032556;28;20030;-67
2022/01/04 09:02:59;;;;;;;23.70;12.57;;;;;;;7.76;90.70;99632.09;5033141;28;20017;-66
2022/01/04 09:05:25;;;;;;;18.13;11.48;;;;;;;7.80;90.72;99633.88;5033560;28;20033;-67
2022/01/04 09:07:51;;;;;;;19.98;12.02;;;;;;;7.82;90.04;99625.97;5033146;28;20483;-66
2022/01/04 09:10:21;;;;;;;20.35;12.40;;;;;;;7.82;90.52;99618.94;5033262;28;20049;-66
2022/01/04 09:20:38;;;;;;;17.92;11.63;;;;;;;7.89;90.26;99628.63;5032854;28;20187;-66
2022/01/04 09:23:04;;;;;;;19.75;11.52;;;;;;;7.89;90.77;99619.84;5032513;28;20159;-65
2022/01/04 09:25:29;;;;;;;22.45;11.63;;;;;;;7.90;90.56;99622.47;5032907;28;20026;-66
2022/01/04 09:27:56;;;;;;;19.67;11.73;;;;;;;7.91;90.91;99620.72;5032837;28;20025;-65
2022/01/04 09:30:24;;;;;;;21.15;12.45;;;;;;;7.87;91.09;99630.34;5032400;28;20033;-67
2022/01/04 09:32:52;;;;;;;20.08;11.80;;;;;;;7.90;90.49;99640.00;5032568;28;20029;-66
2022/01/04 09:35:18;;;;;;;24.27;12.43;;;;;;;7.89;90.15;99644.41;5033013;28;20471;-66
2022/01/04 09:37:43;;;;;;;22.65;12.18;;;;;;;7.94;90.03;99644.41;5033699;28;20112;-66
2022/01/04 09:40:09;;;;;;;21.15;12.32;;;;;;;7.98;90.40;99649.66;5037062;28;20448;-65
2022/01/04 09:42:37;;;;;;;19.70;12.52;;;;;;;8.00;89.96;99644.41;5037126;28;20021;-66
2022/01/04 09:45:07;;;;;;;22.25;13.40;;;;;;;8.00;90.10;99639.13;5036620;28;20036;-66
2022/01/04 09:47:33;;;;;;;22.30;13.13;;;;;;;7.98;89.98;99633.88;5036799;28;20025;-66
2022/01/04 09:49:58;;;;;;;25.60;13.18;;;;;;;8.00;90.10;99633.88;5036486;28;20068;-65
2022/01/04 09:52:24;;;;;;;20.98;12.63;;;;;;;8.02;90.08;99640.91;5036476;28;20079;-64
2022/01/04 09:54:53;;;;;;;25.40;14.07;;;;;;;8.05;89.78;99642.69;5019022;28;20053;-66
2022/01/04 09:57:20;;;;;;;22.23;13.63;;;;;;;8.04;89.91;99639.16;5036953;28;20032;-64
2022/01/04 09:59:46;;;;;;;24.13;14.23;;;;;;;8.06;90.13;99625.13;5036386;28;20029;-67
2022/01/04 10:02:17;;;;;;;25.85;14.65;;;;;;;8.05;89.65;99626.91;5036284;28;20071;-65
2022/01/04 10:04:43;;;;;;;23.75;14.13;;;;;;;8.08;90.33;99629.50;5036135;28;20022;-65
2022/01/04 10:07:09;;;;;;;24.60;15.18;;;;;;;8.08;89.86;99621.63;5036553;28;20052;-64
2022/01/04 10:09:34;;;;;;;28.83;14.77;;;;;;;8.11;89.71;99628.66;5036526;28;20033;-65
2022/01/04 10:12:00;;;;;;;32.65;15.48;;;;;;;8.09;89.57;99623.38;5036255;28;20056;-65
2022/01/04 10:14:31;;;;;;;27.90;15.75;;;;;;;8.11;90.13;99626.00;5036157;28;20101;-64
2022/01/04 10:17:03;;;;;;;26.23;15.23;;;;;;;8.10;89.86;99601.47;5035950;28;20067;-66
2022/01/04 10:19:41;;;;;;;26.95;16.10;;;;;;;8.14;89.59;99602.34;5035839;28;20402;-67
2022/01/04 10:22:23;;;;;;;28.30;15.05;;;;;;;8.20;89.68;99610.22;5044475;28;20021;-66
2022/01/04 10:25:09;;;;;;;30.40;16.23;;;;;;;8.22;89.41;99600.56;5051744;28;20110;-66
2022/01/04 10:27:40;;;;;;;32.78;17.05;;;;;;;8.24;88.94;99598.84;5037466;28;20032;-67
2022/01/04 10:30:31;;;;;;;31.20;15.88;;;;;;;8.27;89.12;99597.09;5055361;28;20435;-66
2022/01/04 10:33:20;;;;;;;30.85;17.50;;;;;;;8.27;88.77;99607.59;5055608;28;20108;-66
2022/01/04 10:35:48;;;;;;;29.30;17.50;;;;;;;8.29;88.75;99600.56;5055544;28;20489;-66
2022/01/04 10:38:23;;;;;;;29.75;17.13;;;;;;;8.30;89.01;99593.56;5055195;28;20025;-66
2022/01/04 10:41:12;;;;;;;30.27;17.25;;;;;;;8.35;88.94;99588.28;5055497;28;20517;-66
2022/01/04 10:43:47;;;;;;;32.42;17.23;;;;;;;8.37;89.21;99576.94;5053463;28;20048;-66
2022/01/04 10:46:15;;;;;;;27.98;16.88;;;;;;;8.37;89.00;99590.09;5055757;28;20462;-66
2022/01/04 10:48:43;;;;;;;31.10;16.55;;;;;;;8.40;88.55;99590.09;5055089;28;20037;-66
2022/01/04 10:51:21;;;;;;;25.80;15.90;;;;;;;8.43;88.72;99587.44;5054431;28;20025;-67
2022/01/04 10:53:49;;;;;;;34.50;17.90;;;;;;;8.47;88.59;99575.16;5054710;28;20041;-66
2022/01/04 10:56:26;;;;;;;30.63;17.17;;;;;;;8.49;88.65;99590.06;5037141;28;20029;-66
2022/01/04 10:58:53;;;;;;;30.67;18.08;;;;;;;8.49;87.87;99581.31;5054871;28;20071;-66
2022/01/04 11:01:23;;;;;;;30.92;15.93;;;;;;;8.50;88.21;99583.06;5054806;28;20021;-67
2022/01/04 11:03:54;;;;;;;27.92;16.20;;;;;;;8.52;89.01;99589.19;5054871;28;20423;-66
2022/01/04 11:06:24;;;;;;;30.08;17.00;;;;;;;8.51;88.23;99580.41;5054797;28;20124;-66
2022/01/04 11:08:50;;;;;;;27.92;17.83;;;;;;;8.51;88.93;99588.31;5054635;28;20167;-66
2022/01/04 11:11:16;;;;;;;33.25;17.98;;;;;;;8.51;88.69;99582.16;5054811;28;20542;-65
2022/01/04 11:13:42;;;;;;;30.75;18.42;;;;;;;8.55;88.34;99589.19;5054717;28;20029;-65
2022/01/04 11:16:08;;;;;;;29.40;16.75;;;;;;;8.49;88.19;99565.50;5036383;28;20482;-65
2022/01/04 11:18:36;;;;;;;30.90;17.45;;;;;;;8.58;88.10;99573.38;5054655;28;20025;-66
2022/01/04 11:21:02;;;;;;;32.17;18.90;;;;;;;8.58;88.96;99565.50;5054144;28;20056;-65
2022/01/04 11:23:32;;;;;;;30.13;18.50;;;;;;;8.57;88.87;99576.91;5054589;28;20060;-65
2022/01/04 11:26:00;;;;;;;28.50;17.90;;;;;;;8.57;88.27;99582.19;5054497;28;20025;-65
2022/01/04 11:28:27;;;;;;;31.25;18.95;;;;;;;8.53;88.84;99575.16;5054482;28;20482;-65
2022/01/04 11:31:10;;;;;;;33.55;19.17;;;;;;;8.57;88.55;99589.19;5053967;28;20478;-65
2022/01/04 11:33:58;;;;;;;35.15;18.63;;;;;;;8.56;88.92;99583.03;5054678;28;20482;-66
2022/01/04 11:36:26;;;;;;;32.15;18.48;;;;;;;8.53;89.13;99593.59;5054259;28;20037;-65
2022/01/04 11:38:52;;;;;;;28.25;15.73;;;;;;;8.47;88.09;99618.16;5054295;28;20040;-67
2022/01/04 11:41:32;;;;;;;10.93;6.80;;;;;;;8.34;85.58;99624.25;5054078;28;20412;-66
2022/01/04 11:44:17;;;;;;;8.15;5.20;;;;;;;8.20;84.13;99639.19;5054131;28;20501;-66